Time;durP1;ratioP1;P1;durP2;ratioP2;P2;SDS_P1;SDS_P2;PMS_P1;PMS_P2;Temp;Humidity;BMP_temperature;BMP_pressure;BME280_temperature;BME280_humidity;BME280_pressure;Samples;Min_cycle;Max_cycle;Signal;HPM_P1;HPM_P2
2024/01/17 00:00:44;;;;;;;;;;;-1.50;99.90;;;;;;5098617;28;19974;-80
2024/01/17 00:03:10;;;;;;;;;;;-1.50;99.90;;;;;;5112457;28;20013;-79
2024/01/17 00:05:40;;;;;;;;;;;-1.50;99.90;;;;;;5112015;27;19935;-79
2024/01/17 00:08:09;;;;;;;;;;;-1.50;99.90;;;;;;5111320;28;19932;-79
2024/01/17 00:10:35;;;;;;;;;;;-1.50;99.90;;;;;;5092283;28;19949;-79
2024/01/17 00:13:02;;;;;;;;;;;-1.50;99.90;;;;;;5113076;28;19938;-79
2024/01/17 00:15:28;;;;;;;;;;;-1.50;99.90;;;;;;5110250;28;19935;-79
2024/01/17 00:17:55;;;;;;;;;;;-1.50;99.90;;;;;;5112313;28;19924;-79
2024/01/17 00:20:22;;;;;;;;;;;-1.50;99.90;;;;;;5093007;27;19935;-79
2024/01/17 00:22:50;;;;;;;;;;;-1.50;99.90;;;;;;5105053;28;20099;-79
2024/01/17 00:25:17;;;;;;;;;;;-1.60;99.90;;;;;;5115724;28;19938;-79
2024/01/17 00:27:43;;;;;;;;;;;-1.60;99.90;;;;;;5112394;28;20506;-78
2024/01/17 00:30:11;;;;;;;;;;;-1.60;99.90;;;;;;5115111;28;19927;-78
2024/01/17 00:32:38;;;;;;;;;;;-1.60;99.90;;;;;;5078193;28;20423;-79
2024/01/17 00:35:05;;;;;;;;;;;-1.60;99.90;;;;;;5096705;28;20507;-80
2024/01/17 00:37:31;;;;;;;;;;;-1.60;99.90;;;;;;5115935;27;19927;-80
2024/01/17 00:40:00;;;;;;;;;;;-1.60;99.90;;;;;;5109822;27;19932;-79
2024/01/17 00:42:27;;;;;;;;;;;-1.60;99.90;;;;;;5112447;28;19935;-80
2024/01/17 00:44:54;;;;;;;;;;;-1.60;99.90;;;;;;5112343;28;19927;-79
2024/01/17 00:47:21;;;;;;;;;;;-1.60;99.90;;;;;;5112825;28;19971;-79
2024/01/17 00:49:47;;;;;;;;;;;-1.60;99.90;;;;;;5111052;27;19990;-79
2024/01/17 00:52:14;;;;;;;;;;;-1.60;99.90;;;;;;5111679;28;19927;-79
2024/01/17 00:54:41;;;;;;;;;;;-1.60;99.90;;;;;;5111139;28;19931;-80
2024/01/17 00:57:09;;;;;;;;;;;-1.70;99.90;;;;;;5109304;28;19932;-79
2024/01/17 00:59:35;;;;;;;;;;;-1.70;99.90;;;;;;5096596;28;20805;-80
2024/01/17 01:02:03;;;;;;;;;;;-1.70;99.90;;;;;;5107910;28;19927;-80
2024/01/17 01:04:29;;;;;;;;;;;-1.70;99.90;;;;;;5107471;28;20150;-81
2024/01/17 01:06:56;;;;;;;;;;;-1.70;99.90;;;;;;5109478;28;20581;-80
2024/01/17 01:09:23;;;;;;;;;;;-1.70;99.90;;;;;;5110611;28;19928;-80
2024/01/17 01:11:49;;;;;;;;;;;-1.70;99.90;;;;;;5108981;28;19932;-80
2024/01/17 01:14:17;;;;;;;;;;;-1.70;99.90;;;;;;5115690;28;19957;-80
2024/01/17 01:16:44;;;;;;;;;;;-1.70;99.90;;;;;;5112878;28;19934;-82
2024/01/17 01:19:10;;;;;;;;;;;-1.70;99.90;;;;;;5111980;27;19928;-79
2024/01/17 01:21:37;;;;;;;;;;;-1.70;99.90;;;;;;5108441;28;19928;-80
2024/01/17 01:24:04;;;;;;;;;;;-1.70;99.90;;;;;;5110016;28;19942;-80
2024/01/17 01:26:30;;;;;;;;;;;-1.70;99.90;;;;;;5107003;27;19935;-80
2024/01/17 01:28:57;;;;;;;;;;;-1.70;99.90;;;;;;5111649;28;19938;-81
2024/01/17 01:31:25;;;;;;;;;;;-1.70;99.90;;;;;;5115052;28;19928;-80
2024/01/17 01:33:51;;;;;;;;;;;-1.70;99.90;;;;;;5108632;28;19928;-79
2024/01/17 01:36:18;;;;;;;;;;;-1.70;99.90;;;;;;5094511;28;19992;-81
2024/01/17 01:38:45;;;;;;;;;;;-1.70;99.90;;;;;;5113768;28;19931;-80
2024/01/17 01:41:12;;;;;;;;;;;-1.80;99.90;;;;;;5113127;28;19934;-82
2024/01/17 01:43:38;;;;;;;;;;;-1.70;99.90;;;;;;5113133;28;19927;-81
2024/01/17 01:46:13;;;;;;;;;;;-1.70;99.90;;;;;;5113476;28;19928;-80
2024/01/17 01:48:42;;;;;;;;;;;-1.70;99.90;;;;;;5099040;28;19930;-80
2024/01/17 01:51:09;;;;;;;;;;;-1.70;99.90;;;;;;5112598;28;20479;-80
2024/01/17 01:53:36;;;;;;;;;;;-1.70;99.90;;;;;;5113808;28;20297;-80
2024/01/17 01:56:02;;;;;;;;;;;-1.70;99.90;;;;;;5107284;28;19943;-80
2024/01/17 01:58:30;;;;;;;;;;;-1.70;99.90;;;;;;5110135;28;19928;-79
2024/01/17 02:00:57;;;;;;;;;;;-1.70;99.90;;;;;;5108546;27;19938;-78
2024/01/17 02:03:24;;;;;;;;;;;-1.70;99.90;;;;;;5109025;28;20039;-80
2024/01/17 02:05:53;;;;;;;;;;;-1.70;99.90;;;;;;5111112;28;19928;-80
2024/01/17 02:08:20;;;;;;;;;;;-1.70;99.90;;;;;;5115575;27;20584;-78
2024/01/17 02:10:47;;;;;;;;;;;-1.80;99.90;;;;;;5111940;28;19928;-80
2024/01/17 02:13:14;;;;;;;;;;;-1.70;99.90;;;;;;5115275;28;20176;-80
2024/01/17 02:15:41;;;;;;;;;;;-1.70;99.90;;;;;;5094708;28;19971;-81
2024/01/17 02:18:08;;;;;;;;;;;-1.70;99.90;;;;;;5117577;28;19928;-80
2024/01/17 02:20:34;;;;;;;;;;;-1.70;99.90;;;;;;5113059;27;19927;-80
2024/01/17 02:23:03;;;;;;;;;;;-1.70;99.90;;;;;;5111743;28;19932;-78
2024/01/17 02:25:31;;;;;;;;;;;-1.70;99.90;;;;;;5114619;28;19977;-79
2024/01/17 02:27:58;;;;;;;;;;;-1.70;99.90;;;;;;5114508;28;19938;-78
2024/01/17 02:30:24;;;;;;;;;;;-1.70;99.90;;;;;;5113107;28;19939;-78
2024/01/17 02:32:51;;;;;;;;;;;-1.70;99.90;;;;;;5109015;28;20239;-79
2024/01/17 02:35:20;;;;;;;;;;;-1.70;99.90;;;;;;5111683;27;19935;-78
2024/01/17 02:37:46;;;;;;;;;;;-1.70;99.90;;;;;;5091768;28;20024;-79
2024/01/17 02:40:13;;;;;;;;;;;-1.70;99.90;;;;;;5114215;28;19928;-80
2024/01/17 02:42:41;;;;;;;;;;;-1.70;99.90;;;;;;5108194;28;19947;-80
2024/01/17 02:45:08;;;;;;;;;;;-1.70;99.90;;;;;;5112084;27;20521;-81
2024/01/17 02:47:34;;;;;;;;;;;-1.70;99.90;;;;;;5113785;28;19935;-82
2024/01/17 02:50:01;;;;;;;;;;;-1.70;99.90;;;;;;5114653;28;19973;-81
2024/01/17 02:52:28;;;;;;;;;;;-1.70;99.90;;;;;;5112645;27;19939;-80
2024/01/17 02:54:54;;;;;;;;;;;-1.70;99.90;;;;;;5115567;28;20002;-81
2024/01/17 02:57:21;;;;;;;;;;;-1.70;99.90;;;;;;5109980;27;20350;-81
2024/01/17 02:59:49;;;;;;;;;;;-1.70;99.90;;;;;;5096647;28;19927;-81
2024/01/17 03:02:16;;;;;;;;;;;-1.70;99.90;;;;;;5107121;27;19928;-82
2024/01/17 03:04:42;;;;;;;;;;;-1.70;99.90;;;;;;5107511;27;19953;-80
2024/01/17 03:07:09;;;;;;;;;;;-1.70;99.90;;;;;;5108853;28;19932;-82
2024/01/17 03:09:37;;;;;;;;;;;-1.70;99.90;;;;;;5080418;28;20026;-81
2024/01/17 03:12:04;;;;;;;;;;;-1.70;99.90;;;;;;5093418;28;20003;-81
2024/01/17 03:14:31;;;;;;;;;;;-1.70;99.90;;;;;;5110119;28;19928;-80
2024/01/17 03:16:59;;;;;;;;;;;-1.70;99.90;;;;;;5108108;28;19931;-81
2024/01/17 03:19:26;;;;;;;;;;;-1.70;99.90;;;;;;5109629;27;19935;-83
2024/01/17 03:21:53;;;;;;;;;;;-1.70;99.90;;;;;;5095040;28;19995;-81
2024/01/17 03:24:19;;;;;;;;;;;-1.70;99.90;;;;;;5110138;28;19939;-82
2024/01/17 03:26:46;;;;;;;;;;;-1.70;99.90;;;;;;5113188;27;19932;-81
2024/01/17 03:29:12;;;;;;;;;;;-1.70;99.90;;;;;;5113447;28;20037;-81
2024/01/17 03:31:40;;;;;;;;;;;-1.70;99.90;;;;;;5109080;28;19927;-81
2024/01/17 03:34:08;;;;;;;;;;;-1.70;99.90;;;;;;5094079;28;20655;-82
2024/01/17 03:36:34;;;;;;;;;;;-1.70;99.90;;;;;;5097569;28;19991;-81
2024/01/17 03:39:01;;;;;;;;;;;-1.70;99.90;;;;;;5110409;28;19938;-81
2024/01/17 03:41:28;;;;;;;;;;;-1.70;99.90;;;;;;5112444;28;19973;-80
2024/01/17 03:43:55;;;;;;;;;;;-1.70;99.90;;;;;;5104865;28;19935;-80
2024/01/17 03:46:21;;;;;;;;;;;-1.70;99.90;;;;;;5108001;27;19935;-81
2024/01/17 03:48:48;;;;;;;;;;;-1.70;99.90;;;;;;5092199;28;20006;-81
2024/01/17 03:51:16;;;;;;;;;;;-1.70;99.90;;;;;;5108495;28;19965;-81
2024/01/17 03:53:46;;;;;;;;;;;-1.70;99.90;;;;;;5108482;28;19927;-81
2024/01/17 03:56:12;;;;;;;;;;;-1.60;99.90;;;;;;5110525;27;19927;-81
2024/01/17 03:58:39;;;;;;;;;;;-1.70;99.90;;;;;;5106898;28;19924;-82
2024/01/17 04:01:06;;;;;;;;;;;-1.70;99.90;;;;;;5107273;27;19928;-81
2024/01/17 04:03:33;;;;;;;;;;;-1.60;99.90;;;;;;5109260;28;19924;-82
2024/01/17 04:05:59;;;;;;;;;;;-1.60;99.90;;;;;;5102947;28;19928;-81
2024/01/17 04:08:27;;;;;;;;;;;-1.60;99.90;;;;;;5106005;28;19935;-81
2024/01/17 04:10:54;;;;;;;;;;;-1.60;99.90;;;;;;5106248;28;20372;-81
2024/01/17 04:13:21;;;;;;;;;;;-1.60;99.90;;;;;;5104045;28;19955;-82
2024/01/17 04:15:47;;;;;;;;;;;-1.60;99.90;;;;;;5085544;28;19942;-81
2024/01/17 04:18:14;;;;;;;;;;;-1.60;99.90;;;;;;5103855;28;19928;-82
2024/01/17 04:20:41;;;;;;;;;;;-1.60;99.90;;;;;;5104528;28;19928;-82
2024/01/17 04:23:08;;;;;;;;;;;-1.60;99.90;;;;;;5103253;27;19935;-81
2024/01/17 04:25:37;;;;;;;;;;;-1.60;99.90;;;;;;5100168;28;20647;-81
2024/01/17 04:28:05;;;;;;;;;;;-1.60;99.90;;;;;;5104044;28;19928;-81
2024/01/17 04:30:32;;;;;;;;;;;-1.60;99.90;;;;;;5090319;28;20015;-81
2024/01/17 04:32:58;;;;;;;;;;;-1.60;99.90;;;;;;5105375;28;19940;-80
2024/01/17 04:35:25;;;;;;;;;;;-1.60;99.90;;;;;;5100091;28;19927;-80
2024/01/17 04:37:51;;;;;;;;;;;-1.60;99.90;;;;;;5105024;27;19928;-81
2024/01/17 04:40:20;;;;;;;;;;;-1.60;99.90;;;;;;5103441;28;19928;-81
2024/01/17 04:42:49;;;;;;;;;;;-1.60;99.90;;;;;;5107003;28;19932;-81
2024/01/17 04:45:17;;;;;;;;;;;-1.60;99.90;;;;;;5106454;28;20038;-82
2024/01/17 04:47:44;;;;;;;;;;;-1.60;99.90;;;;;;5102212;28;19928;-81
2024/01/17 04:50:12;;;;;;;;;;;-1.50;99.90;;;;;;5107167;28;19931;-81
2024/01/17 04:52:39;;;;;;;;;;;-1.60;99.90;;;;;;5067642;28;19967;-81
2024/01/17 04:55:05;;;;;;;;;;;-1.60;99.90;;;;;;5104197;28;19932;-82
2024/01/17 04:57:32;;;;;;;;;;;-1.60;99.90;;;;;;5105823;27;19936;-82
2024/01/17 05:00:00;;;;;;;;;;;-1.50;99.90;;;;;;5106178;28;19936;-82
2024/01/17 05:02:27;;;;;;;;;;;-1.50;99.90;;;;;;5098753;28;19943;-81
2024/01/17 05:04:54;;;;;;;;;;;-1.50;99.90;;;;;;5107260;27;20563;-81
2024/01/17 05:07:20;;;;;;;;;;;-1.50;99.90;;;;;;5105936;27;19937;-81
2024/01/17 05:09:47;;;;;;;;;;;-1.50;99.90;;;;;;5105228;28;19928;-82
2024/01/17 05:12:15;;;;;;;;;;;-1.50;99.90;;;;;;5101091;28;19931;-81
2024/01/17 05:14:42;;;;;;;;;;;-1.50;99.90;;;;;;5088219;28;20685;-81
2024/01/17 05:17:10;;;;;;;;;;;-1.50;99.90;;;;;;5093285;28;20400;-82
2024/01/17 05:19:37;;;;;;;;;;;-1.50;99.90;;;;;;5106945;28;19928;-81
2024/01/17 05:22:04;;;;;;;;;;;-1.50;99.90;;;;;;5104963;28;20347;-82
2024/01/17 05:24:31;;;;;;;;;;;-1.50;99.90;;;;;;5100878;28;19951;-80
2024/01/17 05:26:57;;;;;;;;;;;-1.50;99.90;;;;;;5108660;28;19934;-81
2024/01/17 05:29:24;;;;;;;;;;;-1.50;99.90;;;;;;5108989;28;19957;-81
2024/01/17 05:31:51;;;;;;;;;;;-1.50;99.90;;;;;;5106428;28;19924;-82
2024/01/17 05:34:19;;;;;;;;;;;-0.60;99.90;;;;;;5103986;28;19928;-82
2024/01/17 05:36:45;;;;;;;;;;;-1.50;99.90;;;;;;5100435;28;19932;-81
2024/01/17 05:39:12;;;;;;;;;;;-1.50;99.90;;;;;;5104742;28;19934;-81
2024/01/17 05:41:39;;;;;;;;;;;-1.50;99.90;;;;;;5102952;28;20219;-82
2024/01/17 05:44:07;;;;;;;;;;;-1.40;99.90;;;;;;5107980;28;19935;-82
2024/01/17 05:46:34;;;;;;;;;;;-1.40;99.90;;;;;;5105831;28;19940;-81
2024/01/17 05:49:00;;;;;;;;;;;-1.50;99.90;;;;;;5108227;28;19928;-81
2024/01/17 05:51:28;;;;;;;;;;;-1.40;99.90;;;;;;5105409;28;19935;-81
2024/01/17 05:53:55;;;;;;;;;;;-1.50;99.90;;;;;;5100486;28;20329;-82
2024/01/17 05:56:22;;;;;;;;;;;-1.40;99.90;;;;;;5104910;28;19974;-81
2024/01/17 05:58:48;;;;;;;;;;;-1.40;99.90;;;;;;5113637;28;19939;-82
2024/01/17 06:01:15;;;;;;;;;;;-1.40;99.90;;;;;;5110523;28;19938;-81
2024/01/17 06:03:41;;;;;;;;;;;-1.40;99.90;;;;;;5107505;28;19928;-81
2024/01/17 06:06:08;;;;;;;;;;;-1.40;99.90;;;;;;5105963;28;19932;-81
2024/01/17 06:08:36;;;;;;;;;;;-1.40;99.90;;;;;;5103349;28;20171;-80
2024/01/17 06:11:03;;;;;;;;;;;-1.40;99.90;;;;;;5103003;28;19927;-81
2024/01/17 06:13:30;;;;;;;;;;;-1.40;99.90;;;;;;5105168;28;20681;-81
2024/01/17 06:15:56;;;;;;;;;;;-1.40;99.90;;;;;;5105555;28;19931;-82
2024/01/17 06:18:23;;;;;;;;;;;-1.40;99.90;;;;;;5105347;28;19931;-80
2024/01/17 06:20:50;;;;;;;;;;;-1.40;99.90;;;;;;5083490;28;20050;-81
2024/01/17 06:23:16;;;;;;;;;;;-1.40;99.90;;;;;;5104468;28;19939;-80
2024/01/17 06:25:44;;;;;;;;;;;-1.40;99.90;;;;;;5101838;28;19932;-81
2024/01/17 06:28:11;;;;;;;;;;;-1.30;99.90;;;;;;5104007;28;20536;-81
2024/01/17 06:30:38;;;;;;;;;;;-1.30;99.90;;;;;;5101728;28;19953;-80
2024/01/17 06:33:05;;;;;;;;;;;-1.40;99.90;;;;;;5089476;28;20580;-82
2024/01/17 06:35:32;;;;;;;;;;;-1.30;99.90;;;;;;5103771;28;19932;-78
2024/01/17 06:37:58;;;;;;;;;;;-1.30;99.90;;;;;;5101234;28;19966;-80
2024/01/17 06:40:27;;;;;;;;;;;-1.30;99.90;;;;;;5068383;28;21344;-81
2024/01/17 06:42:55;;;;;;;;;;;-1.30;99.90;;;;;;5098182;28;19978;-81
2024/01/17 06:45:24;;;;;;;;;;;-1.30;99.90;;;;;;5098096;28;20068;-81
2024/01/17 06:47:50;;;;;;;;;;;-1.30;99.90;;;;;;5101910;28;19966;-81
2024/01/17 06:50:18;;;;;;;;;;;-1.30;99.90;;;;;;5104198;28;19932;-82
2024/01/17 06:52:45;;;;;;;;;;;-1.30;99.90;;;;;;5101516;28;19983;-81
2024/01/17 06:55:12;;;;;;;;;;;-1.30;99.90;;;;;;5084691;28;19932;-80
2024/01/17 06:57:38;;;;;;;;;;;-1.20;99.90;;;;;;5099078;27;19953;-81
2024/01/17 07:00:08;;;;;;;;;;;-1.30;99.90;;;;;;5098680;27;19931;-80
2024/01/17 07:02:35;;;;;;;;;;;-1.30;99.90;;;;;;5098963;27;19928;-80
2024/01/17 07:05:01;;;;;;;;;;;-1.20;99.90;;;;;;5100358;28;19950;-82
2024/01/17 07:07:28;;;;;;;;;;;-1.30;99.90;;;;;;5104615;27;19928;-81
2024/01/17 07:09:55;;;;;;;;;;;-1.20;99.90;;;;;;5103828;28;20389;-82
2024/01/17 07:12:21;;;;;;;;;;;-1.20;99.90;;;;;;5087475;28;19927;-81
2024/01/17 07:14:49;;;;;;;;;;;-1.20;99.90;;;;;;5086339;28;20002;-81
2024/01/17 07:17:17;;;;;;;;;;;-1.20;99.90;;;;;;5101110;28;20014;-81
2024/01/17 07:19:44;;;;;;;;;;;-1.20;99.90;;;;;;5099284;28;20034;-81
2024/01/17 07:22:13;;;;;;;;;;;-1.20;99.90;;;;;;5101484;27;19936;-81
2024/01/17 07:24:39;;;;;;;;;;;-1.20;99.90;;;;;;5101920;28;19961;-82
2024/01/17 07:27:06;;;;;;;;;;;-1.20;99.90;;;;;;5101673;28;20400;-81
2024/01/17 07:29:32;;;;;;;;;;;-1.10;99.90;;;;;;5101117;28;19934;-83
2024/01/17 07:31:59;;;;;;;;;;;-1.10;99.90;;;;;;5101451;28;20642;-80
2024/01/17 07:34:28;;;;;;;;;;;-1.10;99.90;;;;;;5105583;27;19934;-79
2024/01/17 07:36:55;;;;;;;;;;;-1.10;99.90;;;;;;5105708;28;19927;-80
2024/01/17 07:39:22;;;;;;;;;;;-1.10;99.90;;;;;;5104842;28;20324;-79
2024/01/17 07:41:49;;;;;;;;;;;-1.10;99.90;;;;;;5103285;28;20495;-79
2024/01/17 07:44:15;;;;;;;;;;;-1.10;99.90;;;;;;5104167;28;19932;-80
2024/01/17 07:46:42;;;;;;;;;;;-1.10;99.90;;;;;;5082751;28;20428;-78
2024/01/17 07:49:08;;;;;;;;;;;-1.10;99.90;;;;;;5101339;27;20408;-79
2024/01/17 07:51:37;;;;;;;;;;;-1.10;99.90;;;;;;5104166;27;19986;-80
2024/01/17 07:54:03;;;;;;;;;;;-1.10;99.90;;;;;;5098819;28;19939;-78
2024/01/17 07:56:30;;;;;;;;;;;-1.10;99.90;;;;;;5099882;28;19934;-78
2024/01/17 07:58:57;;;;;;;;;;;-1.00;99.90;;;;;;5104405;28;19974;-78
2024/01/17 08:01:24;;;;;;;;;;;-1.00;99.90;;;;;;5085924;28;19928;-80
2024/01/17 08:03:50;;;;;;;;;;;-1.10;99.90;;;;;;5100624;27;20280;-79
2024/01/17 08:06:17;;;;;;;;;;;-1.00;99.90;;;;;;5084208;28;19966;-79
2024/01/17 08:08:45;;;;;;;;;;;-1.00;99.90;;;;;;5103145;28;20541;-78
2024/01/17 08:11:12;;;;;;;;;;;-1.00;99.90;;;;;;5103908;28;19928;-78
2024/01/17 08:13:38;;;;;;;;;;;-1.00;99.90;;;;;;5104500;28;19927;-78
2024/01/17 08:16:05;;;;;;;;;;;-1.00;99.90;;;;;;5097871;28;19950;-79
2024/01/17 08:18:32;;;;;;;;;;;-1.00;99.90;;;;;;5087921;28;20342;-79
2024/01/17 08:20:59;;;;;;;;;;;-1.00;99.90;;;;;;5085154;28;19931;-80
2024/01/17 08:23:26;;;;;;;;;;;-1.00;99.90;;;;;;5095412;28;19935;-79
2024/01/17 08:25:54;;;;;;;;;;;-0.90;99.90;;;;;;5102183;27;19934;-79
2024/01/17 08:28:20;;;;;;;;;;;-0.90;99.90;;;;;;5088071;28;20042;-79
2024/01/17 08:30:47;;;;;;;;;;;-0.90;99.90;;;;;;5102642;28;20735;-79
2024/01/17 08:33:15;;;;;;;;;;;-0.90;99.90;;;;;;5100996;28;20705;-80
2024/01/17 08:35:42;;;;;;;;;;;-0.90;99.90;;;;;;5100763;27;19936;-80
2024/01/17 08:38:08;;;;;;;;;;;-0.90;99.90;;;;;;5096041;28;20013;-80
2024/01/17 08:40:36;;;;;;;;;;;-0.90;99.90;;;;;;5075964;28;19950;-78
2024/01/17 08:43:04;;;;;;;;;;;-0.90;99.90;;;;;;5098059;28;21176;-79
2024/01/17 08:45:31;;;;;;;;;;;-0.90;99.90;;;;;;5098156;27;20542;-79
2024/01/17 08:47:57;;;;;;;;;;;-0.80;99.90;;;;;;5078450;28;20026;-79
2024/01/17 08:50:25;;;;;;;;;;;-0.80;99.90;;;;;;5092913;28;19942;-79
2024/01/17 08:52:52;;;;;;;;;;;-0.80;99.90;;;;;;5096242;28;19928;-79
2024/01/17 08:55:18;;;;;;;;;;;-0.70;99.90;;;;;;5060058;28;20046;-80
2024/01/17 08:57:45;;;;;;;;;;;-0.80;99.90;;;;;;5096002;28;19950;-80
2024/01/17 09:00:14;;;;;;;;;;;-0.80;99.90;;;;;;5096776;28;20534;-79
2024/01/17 09:02:41;;;;;;;;;;;-0.70;99.90;;;;;;5098218;28;20030;-79
2024/01/17 09:05:08;;;;;;;;;;;-0.70;99.90;;;;;;5075466;27;19927;-79
2024/01/17 09:07:36;;;;;;;;;;;-0.70;99.90;;;;;;5077465;28;20042;-79
2024/01/17 09:10:02;;;;;;;;;;;-0.70;99.90;;;;;;5096566;28;19959;-79
2024/01/17 09:12:29;;;;;;;;;;;-0.70;99.90;;;;;;5072866;28;19928;-78
2024/01/17 09:14:56;;;;;;;;;;;-0.70;99.90;;;;;;5097029;28;19966;-80
2024/01/17 09:17:24;;;;;;;;;;;-0.70;99.90;;;;;;5091840;28;19928;-78
2024/01/17 09:19:50;;;;;;;;;;;-0.70;99.90;;;;;;5095550;28;20042;-79
2024/01/17 09:22:17;;;;;;;;;;;-0.60;99.90;;;;;;5099996;27;20675;-80
2024/01/17 09:24:43;;;;;;;;;;;-0.60;99.90;;;;;;5095467;28;19931;-81
2024/01/17 09:27:10;;;;;;;;;;;-0.60;99.90;;;;;;5098690;28;19928;-78
2024/01/17 09:29:37;;;;;;;;;;;-0.60;99.90;;;;;;5095687;28;20105;-80
2024/01/17 09:32:04;;;;;;;;;;;-0.60;99.90;;;;;;5095518;28;19927;-79
2024/01/17 09:34:33;;;;;;;;;;;-0.60;99.90;;;;;;5094911;28;19985;-80
2024/01/17 09:37:00;;;;;;;;;;;-0.50;99.90;;;;;;5093413;28;19938;-80
2024/01/17 09:39:28;;;;;;;;;;;-0.50;99.90;;;;;;5077610;28;19927;-80
2024/01/17 09:41:55;;;;;;;;;;;-0.50;99.90;;;;;;5095837;28;19932;-81
2024/01/17 09:44:21;;;;;;;;;;;-0.50;99.90;;;;;;5094598;28;19940;-81
2024/01/17 09:46:48;;;;;;;;;;;-0.50;99.90;;;;;;5092210;28;20013;-80
2024/01/17 09:49:15;;;;;;;;;;;-0.50;99.90;;;;;;5096815;28;19934;-80
2024/01/17 09:51:43;;;;;;;;;;;-0.50;99.90;;;;;;5101990;28;19932;-80
2024/01/17 09:54:10;;;;;;;;;;;-0.40;99.90;;;;;;5097637;28;20016;-79
2024/01/17 09:56:39;;;;;;;;;;;-0.40;99.90;;;;;;5077332;28;20688;-81
2024/01/17 09:59:11;;;;;;;;;;;-0.40;99.90;;;;;;5094159;28;21791;-81
2024/01/17 10:01:38;;;;;;;;;;;-0.40;99.90;;;;;;5079970;28;19938;-80
2024/01/17 10:04:05;;;;;;;;;;;-0.40;99.90;;;;;;5100703;28;20485;-79
2024/01/17 10:06:32;;;;;;;;;;;-0.40;99.90;;;;;;5080422;28;20018;-80
2024/01/17 10:09:01;;;;;;;;;;;-0.30;99.90;;;;;;5096297;28;20432;-79
2024/01/17 10:11:27;;;;;;;;;;;-0.30;99.90;;;;;;5096273;28;19928;-79
2024/01/17 10:13:54;;;;;;;;;;;-0.30;99.90;;;;;;5097657;28;19972;-79
2024/01/17 10:16:23;;;;;;;;;;;-0.30;99.90;;;;;;5097701;28;19985;-80
2024/01/17 10:18:49;;;;;;;;;;;-0.30;99.90;;;;;;5074289;28;19928;-80
2024/01/17 10:21:16;;;;;;;;;;;-0.30;99.90;;;;;;5095486;28;19938;-80
2024/01/17 10:23:43;;;;;;;;;;;-0.30;99.90;;;;;;5098879;28;20687;-81
2024/01/17 10:26:11;;;;;;;;;;;-0.30;99.90;;;;;;5095561;28;19981;-80
2024/01/17 10:28:38;;;;;;;;;;;-0.20;99.90;;;;;;5103221;28;20658;-79
2024/01/17 10:31:05;;;;;;;;;;;-0.20;99.90;;;;;;5102371;27;19932;-80
2024/01/17 10:33:32;;;;;;;;;;;-0.20;99.90;;;;;;5083520;28;19928;-80
2024/01/17 10:35:59;;;;;;;;;;;-0.20;99.90;;;;;;5097560;27;19935;-79
2024/01/17 10:38:31;;;;;;;;;;;-0.20;99.90;;;;;;5075520;28;19928;-79
2024/01/17 10:41:04;;;;;;;;;;;-0.20;99.90;;;;;;5084930;28;19957;-79
2024/01/17 10:43:32;;;;;;;;;;;-0.10;99.90;;;;;;5104125;28;19953;-79
2024/01/17 10:46:01;;;;;;;;;;;-0.10;99.90;;;;;;5101724;28;19928;-78
2024/01/17 10:48:28;;;;;;;;;;;-0.10;99.90;;;;;;5085504;27;19975;-78
2024/01/17 10:50:56;;;;;;;;;;;-0.10;99.90;;;;;;5101557;27;19932;-81
2024/01/17 10:53:24;;;;;;;;;;;-0.10;99.90;;;;;;5105241;27;19951;-79
2024/01/17 10:55:51;;;;;;;;;;;0.00;99.90;;;;;;5105321;28;19943;-80
2024/01/17 10:58:19;;;;;;;;;;;-0.10;99.90;;;;;;5104059;28;19934;-80
2024/01/17 11:00:49;;;;;;;;;;;0.00;99.90;;;;;;5104795;27;19935;-79
2024/01/17 11:03:18;;;;;;;;;;;0.00;99.90;;;;;;5101638;28;19927;-79
2024/01/17 11:05:47;;;;;;;;;;;0.00;99.90;;;;;;5100381;27;19928;-79
2024/01/17 11:08:15;;;;;;;;;;;0.00;99.90;;;;;;5101915;28;19927;-79
2024/01/17 11:10:43;;;;;;;;;;;0.00;99.90;;;;;;5103512;28;19982;-80
2024/01/17 11:13:11;;;;;;;;;;;0.00;99.90;;;;;;5090223;27;19932;-81
2024/01/17 11:15:38;;;;;;;;;;;0.00;99.90;;;;;;5088073;28;20043;-79
2024/01/17 11:18:06;;;;;;;;;;;0.00;99.90;;;;;;5084662;28;20420;-79
2024/01/17 11:20:33;;;;;;;;;;;0.10;99.90;;;;;;5100898;27;19939;-80
2024/01/17 11:23:03;;;;;;;;;;;0.10;99.90;;;;;;5102611;28;20349;-78
2024/01/17 11:25:33;;;;;;;;;;;0.00;99.90;;;;;;5102436;27;19997;-78
2024/01/17 11:28:04;;;;;;;;;;;0.10;99.90;;;;;;5101730;28;19928;-79
2024/01/17 11:30:35;;;;;;;;;;;0.10;99.90;;;;;;5101845;28;19967;-78
2024/01/17 11:33:05;;;;;;;;;;;0.10;99.90;;;;;;5103362;28;19950;-81
2024/01/17 11:35:43;;;;;;;;;;;0.10;99.90;;;;;;5098228;28;20051;-79
2024/01/17 11:38:14;;;;;;;;;;;0.10;99.90;;;;;;5101533;28;19934;-80
2024/01/17 11:40:41;;;;;;;;;;;0.10;99.90;;;;;;5103109;28;19928;-79
2024/01/17 11:43:08;;;;;;;;;;;0.10;99.90;;;;;;5100288;28;20015;-79
2024/01/17 11:45:36;;;;;;;;;;;0.10;99.90;;;;;;5098441;28;19928;-78
2024/01/17 11:48:12;;;;;;;;;;;0.10;99.90;;;;;;5100905;28;20642;-79
2024/01/17 11:50:39;;;;;;;;;;;0.20;99.90;;;;;;5100339;27;20047;-79
2024/01/17 11:53:08;;;;;;;;;;;0.20;99.90;;;;;;5098130;28;19943;-79
2024/01/17 11:55:48;;;;;;;;;;;0.20;99.90;;;;;;5087266;27;20046;-80
2024/01/17 11:58:15;;;;;;;;;;;0.20;99.90;;;;;;5096750;27;19934;-79
2024/01/17 12:00:42;;;;;;;;;;;0.20;99.90;;;;;;5100911;28;20416;-79
2024/01/17 12:03:08;;;;;;;;;;;0.20;99.90;;;;;;5099241;28;20107;-80
2024/01/17 12:05:36;;;;;;;;;;;0.20;99.90;;;;;;5095425;27;19928;-78
2024/01/17 12:08:05;;;;;;;;;;;0.20;99.90;;;;;;5085315;28;19934;-80
2024/01/17 12:10:33;;;;;;;;;;;0.20;99.90;;;;;;5097806;27;20018;-78
2024/01/17 12:12:59;;;;;;;;;;;0.30;99.90;;;;;;5100679;28;19936;-78
2024/01/17 12:15:26;;;;;;;;;;;0.20;99.90;;;;;;5101556;28;20385;-78
2024/01/17 12:17:52;;;;;;;;;;;0.30;99.90;;;;;;5094656;28;19940;-79
2024/01/17 12:20:20;;;;;;;;;;;0.30;99.90;;;;;;5095381;28;19931;-79
2024/01/17 12:22:50;;;;;;;;;;;0.30;99.90;;;;;;5092755;28;19931;-79
2024/01/17 12:25:18;;;;;;;;;;;0.30;99.90;;;;;;5097261;28;19931;-79
2024/01/17 12:27:52;;;;;;;;;;;0.30;99.90;;;;;;5095417;27;20373;-78
2024/01/17 12:30:19;;;;;;;;;;;0.30;99.90;;;;;;5075575;28;19927;-79
2024/01/17 12:32:46;;;;;;;;;;;0.30;99.90;;;;;;5091546;28;19931;-78
2024/01/17 12:35:14;;;;;;;;;;;0.30;99.90;;;;;;5091958;27;20589;-78
2024/01/17 12:37:41;;;;;;;;;;;0.30;99.90;;;;;;5099214;27;20402;-78
2024/01/17 12:40:09;;;;;;;;;;;0.30;99.90;;;;;;5092613;28;19927;-79
2024/01/17 12:42:35;;;;;;;;;;;0.30;99.90;;;;;;5091654;28;19976;-78
2024/01/17 12:45:04;;;;;;;;;;;0.30;99.90;;;;;;5097737;27;19935;-79
2024/01/17 12:47:30;;;;;;;;;;;0.30;99.90;;;;;;5092920;28;19934;-78
2024/01/17 12:49:57;;;;;;;;;;;0.30;99.90;;;;;;5095655;28;20701;-78
2024/01/17 12:52:25;;;;;;;;;;;0.30;99.90;;;;;;5090902;27;20420;-79
2024/01/17 12:54:51;;;;;;;;;;;0.30;99.90;;;;;;5089856;28;19927;-78
2024/01/17 12:57:18;;;;;;;;;;;0.40;99.90;;;;;;5071846;28;20460;-79
2024/01/17 12:59:45;;;;;;;;;;;0.30;99.90;;;;;;5096391;28;19939;-79
2024/01/17 13:02:15;;;;;;;;;;;0.40;99.90;;;;;;5072885;28;19967;-79
2024/01/17 13:04:41;;;;;;;;;;;0.40;99.90;;;;;;5079896;28;20543;-79
2024/01/17 13:07:08;;;;;;;;;;;0.40;99.90;;;;;;5098546;27;19935;-78
2024/01/17 13:09:35;;;;;;;;;;;0.40;99.90;;;;;;5073598;28;19924;-78
2024/01/17 13:12:05;;;;;;;;;;;0.40;99.90;;;;;;5090784;27;20425;-78
2024/01/17 13:14:32;;;;;;;;;;;0.40;99.90;;;;;;5092775;28;19935;-79
2024/01/17 13:17:00;;;;;;;;;;;0.40;99.90;;;;;;5072747;28;19976;-79
2024/01/17 13:19:29;;;;;;;;;;;0.40;99.90;;;;;;5096427;28;19952;-79
2024/01/17 13:21:55;;;;;;;;;;;0.40;99.90;;;;;;5098344;27;19927;-80
2024/01/17 13:24:23;;;;;;;;;;;0.40;99.90;;;;;;5095561;28;19928;-79
2024/01/17 13:26:49;;;;;;;;;;;0.40;99.90;;;;;;5101246;28;19928;-79
2024/01/17 13:29:16;;;;;;;;;;;0.40;99.90;;;;;;5091984;28;19939;-78
2024/01/17 13:31:44;;;;;;;;;;;0.40;99.90;;;;;;5095258;28;20346;-79
2024/01/17 13:34:11;;;;;;;;;;;0.40;99.90;;;;;;5079717;28;19932;-78
2024/01/17 13:36:40;;;;;;;;;;;0.40;99.90;;;;;;5098219;27;19940;-78
2024/01/17 13:39:09;;;;;;;;;;;0.50;99.90;;;;;;5095920;28;19946;-79
2024/01/17 13:41:35;;;;;;;;;;;0.50;99.90;;;;;;5100663;28;19928;-79
2024/01/17 13:44:02;;;;;;;;;;;0.50;99.90;;;;;;5098771;28;20025;-78
2024/01/17 13:46:29;;;;;;;;;;;0.40;99.90;;;;;;5097436;28;19928;-78
2024/01/17 13:48:57;;;;;;;;;;;0.50;99.90;;;;;;5091680;28;19934;-79
2024/01/17 13:51:24;;;;;;;;;;;0.40;99.90;;;;;;5079730;28;19975;-78
2024/01/17 13:53:53;;;;;;;;;;;0.50;99.90;;;;;;5098400;28;19939;-79
2024/01/17 13:56:20;;;;;;;;;;;0.50;99.90;;;;;;5098221;28;19935;-78
2024/01/17 13:58:46;;;;;;;;;;;0.50;99.90;;;;;;5095024;28;19932;-78
2024/01/17 14:01:18;;;;;;;;;;;0.50;99.90;;;;;;5082317;28;20579;-78
2024/01/17 14:03:45;;;;;;;;;;;0.50;99.90;;;;;;5101513;28;19936;-79
2024/01/17 14:06:11;;;;;;;;;;;0.50;99.90;;;;;;5098430;28;20408;-78
2024/01/17 14:08:38;;;;;;;;;;;0.50;99.90;;;;;;5103369;28;20372;-79
2024/01/17 14:11:07;;;;;;;;;;;0.50;99.90;;;;;;5103833;27;19939;-77
2024/01/17 14:13:34;;;;;;;;;;;0.50;99.90;;;;;;5084548;28;19931;-78
2024/01/17 14:16:00;;;;;;;;;;;0.50;99.90;;;;;;5098858;27;19936;-78
2024/01/17 14:18:27;;;;;;;;;;;0.50;99.90;;;;;;5099969;27;20060;-77
2024/01/17 14:20:54;;;;;;;;;;;0.50;99.90;;;;;;5103248;27;19939;-77